Time;durP1;ratioP1;P1;durP2;ratioP2;P2;SDS_P1;SDS_P2;PMS_P1;PMS_P2;Temp;Humidity;BMP_temperature;BMP_pressure;BME280_temperature;BME280_humidity;BME280_pressure;Samples;Min_cycle;Max_cycle;Signal;HPM_P1;HPM_P2
2021/09/10 00:00:06;;;;;;;15.07;8.77;;;;;;;;;;5054468;28;20045;-89
2021/09/10 00:02:32;;;;;;;13.27;8.40;;;;;;;;;;5053233;28;20087;-89
2021/09/10 00:04:57;;;;;;;17.88;9.07;;;;;;;;;;5054256;28;20397;-89
2021/09/10 00:07:22;;;;;;;16.58;8.88;;;;;;;;;;5053933;28;20024;-89
2021/09/10 00:09:47;;;;;;;14.85;7.97;;;;;;;;;;5053204;28;20079;-90
2021/09/10 00:12:13;;;;;;;18.08;8.43;;;;;;;;;;5053161;28;20025;-89
2021/09/10 00:14:38;;;;;;;12.48;7.45;;;;;;;;;;5052568;28;20432;-88
2021/09/10 00:17:03;;;;;;;13.77;7.20;;;;;;;;;;5052894;28;20012;-89
2021/09/10 00:19:28;;;;;;;13.65;7.13;;;;;;;;;;5053095;28;20703;-89
2021/09/10 00:21:54;;;;;;;14.00;7.88;;;;;;;;;;5052484;28;20036;-90
2021/09/10 00:24:19;;;;;;;13.95;7.25;;;;;;;;;;5053155;28;20017;-90
2021/09/10 00:26:44;;;;;;;11.50;7.18;;;;;;;;;;5052348;28;20048;-89
2021/09/10 00:29:09;;;;;;;14.20;6.72;;;;;;;;;;5052453;28;20178;-89
2021/09/10 00:31:34;;;;;;;15.15;7.47;;;;;;;;;;5054374;28;20024;-89
2021/09/10 00:34:00;;;;;;;16.05;8.18;;;;;;;;;;5052713;28;20013;-89
2021/09/10 00:36:25;;;;;;;12.70;7.80;;;;;;;;;;5052480;28;20384;-89
2021/09/10 00:38:50;;;;;;;14.52;7.28;;;;;;;;;;5051940;28;20361;-89
2021/09/10 00:41:15;;;;;;;15.23;7.82;;;;;;;;;;5051924;28;20017;-89
2021/09/10 00:43:41;;;;;;;15.55;7.80;;;;;;;;;;5052262;28;20104;-89
2021/09/10 00:46:06;;;;;;;12.88;7.45;;;;;;;;;;5053504;28;20432;-88
2021/09/10 00:48:31;;;;;;;13.98;8.15;;;;;;;;;;5053254;28;20094;-90
2021/09/10 00:50:56;;;;;;;17.17;8.45;;;;;;;;;;5077818;28;20032;-89
2021/09/10 00:53:22;;;;;;;15.40;8.95;;;;;;;;;;5049620;28;20021;-89
2021/09/10 00:55:47;;;;;;;17.48;9.05;;;;;;;;;;5052414;28;20384;-89
2021/09/10 00:58:13;;;;;;;13.85;8.27;;;;;;;;;;5052297;28;20457;-89
2021/09/10 01:00:39;;;;;;;17.65;9.05;;;;;;;;;;5052196;28;20021;-89
2021/09/10 01:03:04;;;;;;;13.50;8.60;;;;;;;;;;5052126;28;20028;-89
2021/09/10 01:05:30;;;;;;;17.88;9.20;;;;;;;;;;5053168;28;20017;-89
2021/09/10 01:07:56;;;;;;;15.75;7.85;;;;;;;;;;5053253;28;20024;-89
2021/09/10 01:10:22;;;;;;;14.45;7.93;;;;;;;;;;5052302;28;20025;-90
2021/09/10 01:12:47;;;;;;;20.10;8.88;;;;;;;;;;5052083;28;20021;-90
2021/09/10 01:15:13;;;;;;;17.50;8.43;;;;;;;;;;5051549;28;20040;-89
2021/09/10 01:17:38;;;;;;;18.20;8.48;;;;;;;;;;5051844;28;20376;-89
2021/09/10 01:20:05;;;;;;;14.32;8.40;;;;;;;;;;5051761;28;20020;-90
2021/09/10 01:22:30;;;;;;;14.65;8.20;;;;;;;;;;5052390;28;20029;-89
2021/09/10 01:25:12;;;;;;;18.85;8.50;;;;;;;;;;5051864;28;20023;-89
2021/09/10 01:27:42;;;;;;;14.75;8.18;;;;;;;;;;5053058;28;20013;-90
2021/09/10 01:30:07;;;;;;;17.08;8.50;;;;;;;;;;5051907;28;20025;-89
2021/09/10 01:32:33;;;;;;;13.70;8.75;;;;;;;;;;5051773;28;20357;-89
2021/09/10 01:34:58;;;;;;;15.57;8.45;;;;;;;;;;5051950;28;20028;-89
2021/09/10 01:37:23;;;;;;;16.02;8.82;;;;;;;;;;5051772;28;20028;-89
2021/09/10 01:39:48;;;;;;;13.18;7.82;;;;;;;;;;5051820;28;20495;-89
2021/09/10 01:42:14;;;;;;;13.63;7.90;;;;;;;;;;5051600;28;20030;-89
2021/09/10 01:44:39;;;;;;;15.40;8.65;;;;;;;;;;5052695;28;20131;-89
2021/09/10 01:47:04;;;;;;;14.93;7.75;;;;;;;;;;5052774;28;20483;-89
2021/09/10 01:49:29;;;;;;;16.52;8.00;;;;;;;;;;5051050;28;20489;-89
2021/09/10 01:51:54;;;;;;;12.65;7.50;;;;;;;;;;5053761;28;20095;-89
2021/09/10 01:54:20;;;;;;;13.43;7.28;;;;;;;;;;5054654;28;20028;-89
2021/09/10 01:56:45;;;;;;;14.93;7.45;;;;;;;;;;5055560;28;20039;-89
2021/09/10 01:59:10;;;;;;;10.95;7.20;;;;;;;;;;5055609;28;20391;-89
2021/09/10 02:01:35;;;;;;;12.65;7.22;;;;;;;;;;5055054;28;20023;-89
2021/09/10 02:04:01;;;;;;;14.27;7.63;;;;;;;;;;5055563;28;20025;-89
2021/09/10 02:06:26;;;;;;;15.35;7.53;;;;;;;;;;5056578;28;20021;-89
2021/09/10 02:08:52;;;;;;;16.63;7.85;;;;;;;;;;5055437;28;20043;-89
2021/09/10 02:11:17;;;;;;;14.00;7.15;;;;;;;;;;5055550;28;20066;-89
2021/09/10 02:13:42;;;;;;;14.23;7.88;;;;;;;;;;5056380;28;20078;-89
2021/09/10 02:16:08;;;;;;;12.52;7.68;;;;;;;;;;5055174;28;20521;-88
2021/09/10 02:18:34;;;;;;;14.10;7.55;;;;;;;;;;5055852;28;20037;-89
2021/09/10 02:20:59;;;;;;;12.75;7.80;;;;;;;;;;5055051;28;20028;-89
2021/09/10 02:23:24;;;;;;;13.27;7.72;;;;;;;;;;5055112;28;20021;-89
2021/09/10 02:25:50;;;;;;;16.85;8.43;;;;;;;;;;5055027;28;20086;-89
2021/09/10 02:28:15;;;;;;;15.77;7.38;;;;;;;;;;5056227;28;20016;-89
2021/09/10 02:30:40;;;;;;;12.38;7.63;;;;;;;;;;5054764;28;20056;-88
2021/09/10 02:33:05;;;;;;;14.18;8.02;;;;;;;;;;5056597;28;20438;-89
2021/09/10 02:35:30;;;;;;;17.50;7.53;;;;;;;;;;5054816;28;20481;-89
2021/09/10 02:37:56;;;;;;;15.23;7.65;;;;;;;;;;5054813;28;20439;-89
2021/09/10 02:40:21;;;;;;;14.15;7.22;;;;;;;;;;5055933;28;20017;-88
2021/09/10 02:42:46;;;;;;;17.02;7.47;;;;;;;;;;5055904;28;20036;-88
2021/09/10 02:45:12;;;;;;;13.27;7.50;;;;;;;;;;5054666;28;20487;-89
2021/09/10 02:47:37;;;;;;;24.73;8.15;;;;;;;;;;5053383;28;20028;-89
2021/09/10 02:50:02;;;;;;;17.55;8.10;;;;;;;;;;5052891;28;20070;-89
2021/09/10 02:52:28;;;;;;;13.20;7.35;;;;;;;;;;5053189;28;20025;-89
2021/09/10 02:54:53;;;;;;;11.90;7.40;;;;;;;;;;5052772;28;20021;-89
2021/09/10 02:57:18;;;;;;;17.52;7.93;;;;;;;;;;5053082;28;20029;-89
2021/09/10 02:59:43;;;;;;;14.73;7.90;;;;;;;;;;5052556;28;20388;-89
2021/09/10 03:02:08;;;;;;;17.05;8.25;;;;;;;;;;5053954;28;20461;-89
2021/09/10 03:04:34;;;;;;;13.95;7.75;;;;;;;;;;5053114;28;20552;-89
2021/09/10 03:06:59;;;;;;;14.82;8.52;;;;;;;;;;5053528;28;20020;-89
2021/09/10 03:09:24;;;;;;;12.65;8.02;;;;;;;;;;5052779;28;20071;-89
2021/09/10 03:11:49;;;;;;;12.57;7.25;;;;;;;;;;5052461;28;20021;-89
2021/09/10 03:14:15;;;;;;;14.35;7.22;;;;;;;;;;5052184;28;20025;-89
2021/09/10 03:16:40;;;;;;;9.98;6.72;;;;;;;;;;5052677;28;20224;-89
2021/09/10 03:19:05;;;;;;;13.43;7.20;;;;;;;;;;5053423;28;20028;-89
2021/09/10 03:21:30;;;;;;;11.75;7.72;;;;;;;;;;5054140;28;20025;-89
2021/09/10 03:23:56;;;;;;;13.90;7.68;;;;;;;;;;5054112;28;20067;-89
2021/09/10 03:26:21;;;;;;;11.85;6.85;;;;;;;;;;5053710;28;20494;-89
2021/09/10 03:28:46;;;;;;;14.90;8.18;;;;;;;;;;5053808;28;20047;-89
2021/09/10 03:31:12;;;;;;;11.25;7.40;;;;;;;;;;5053850;28;20025;-89
2021/09/10 03:33:37;;;;;;;15.68;8.07;;;;;;;;;;5055017;28;20032;-89
2021/09/10 03:36:02;;;;;;;12.60;7.07;;;;;;;;;;5053752;28;20374;-89
2021/09/10 03:38:28;;;;;;;11.82;7.20;;;;;;;;;;5054804;28;20478;-89
2021/09/10 03:40:53;;;;;;;13.82;7.28;;;;;;;;;;5053689;28;20009;-89
2021/09/10 03:43:18;;;;;;;11.70;6.75;;;;;;;;;;5053543;28;20071;-89
2021/09/10 03:45:43;;;;;;;14.15;7.32;;;;;;;;;;5053118;28;20021;-89
2021/09/10 03:48:09;;;;;;;10.95;7.15;;;;;;;;;;5053366;28;20071;-89
2021/09/10 03:50:34;;;;;;;18.42;6.72;;;;;;;;;;5053223;28;20017;-89
2021/09/10 03:52:59;;;;;;;14.60;7.68;;;;;;;;;;5084014;28;20095;-89
2021/09/10 03:55:25;;;;;;;13.35;7.05;;;;;;;;;;5053383;28;20542;-89
2021/09/10 03:57:50;;;;;;;12.15;7.10;;;;;;;;;;5053343;28;20558;-88
2021/09/10 04:00:16;;;;;;;13.90;7.30;;;;;;;;;;5053256;28;20103;-89
2021/09/10 04:02:41;;;;;;;11.15;7.32;;;;;;;;;;5053015;28;20052;-89
2021/09/10 04:05:06;;;;;;;17.23;7.68;;;;;;;;;;5053058;28;20013;-89
2021/09/10 04:07:31;;;;;;;10.57;7.05;;;;;;;;;;5053000;28;20013;-89
2021/09/10 04:09:57;;;;;;;12.98;7.57;;;;;;;;;;5052992;28;20570;-88
2021/09/10 04:12:22;;;;;;;13.38;6.85;;;;;;;;;;5052930;28;20098;-89
2021/09/10 04:14:47;;;;;;;16.70;7.25;;;;;;;;;;5052137;28;20028;-88
2021/09/10 04:17:12;;;;;;;15.40;7.45;;;;;;;;;;5053925;28;20024;-89
2021/09/10 04:19:37;;;;;;;14.13;7.90;;;;;;;;;;5052883;28;20033;-88
2021/09/10 04:22:03;;;;;;;12.85;7.97;;;;;;;;;;5052470;28;20017;-89
2021/09/10 04:24:28;;;;;;;15.40;7.45;;;;;;;;;;5052941;28;20025;-89
2021/09/10 04:26:53;;;;;;;14.23;7.90;;;;;;;;;;5053349;28;20013;-88
2021/09/10 04:29:18;;;;;;;13.85;7.18;;;;;;;;;;5052649;28;20021;-89
2021/09/10 04:31:44;;;;;;;15.38;6.85;;;;;;;;;;5052768;28;20056;-89
2021/09/10 04:34:09;;;;;;;9.80;6.30;;;;;;;;;;5052687;28;20013;-89
2021/09/10 04:36:35;;;;;;;9.68;5.97;;;;;;;;;;5052593;28;20013;-89
2021/09/10 04:39:00;;;;;;;12.88;6.47;;;;;;;;;;5052521;28;20460;-89
2021/09/10 04:41:25;;;;;;;12.45;6.40;;;;;;;;;;5052516;28;20013;-89
2021/09/10 04:43:50;;;;;;;12.00;6.28;;;;;;;;;;5052241;28;20021;-89
2021/09/10 04:46:16;;;;;;;8.65;5.95;;;;;;;;;;5052300;28;20033;-89
2021/09/10 04:48:41;;;;;;;12.73;6.05;;;;;;;;;;5053572;28;20116;-89
2021/09/10 04:51:06;;;;;;;12.73;6.15;;;;;;;;;;5051929;28;20488;-88
2021/09/10 04:53:31;;;;;;;11.02;6.70;;;;;;;;;;5052043;28;20025;-89
2021/09/10 04:55:56;;;;;;;9.90;6.35;;;;;;;;;;5053258;28;20078;-89
2021/09/10 04:58:23;;;;;;;12.05;6.55;;;;;;;;;;5052050;28;20021;-89
2021/09/10 05:00:48;;;;;;;12.27;5.88;;;;;;;;;;5052149;28;20067;-89
2021/09/10 05:03:13;;;;;;;15.38;6.13;;;;;;;;;;5051735;28;20473;-89
2021/09/10 05:05:39;;;;;;;13.82;6.47;;;;;;;;;;5052003;28;20500;-89
2021/09/10 05:08:04;;;;;;;8.50;5.72;;;;;;;;;;5053281;28;20017;-88
2021/09/10 05:10:29;;;;;;;12.95;6.32;;;;;;;;;;5052155;28;20078;-89
2021/09/10 05:12:54;;;;;;;9.52;5.63;;;;;;;;;;5052027;28;20033;-88
2021/09/10 05:15:19;;;;;;;13.20;6.60;;;;;;;;;;5051593;28;20464;-88
2021/09/10 05:17:45;;;;;;;10.98;6.20;;;;;;;;;;5053184;28;20028;-89
2021/09/10 05:20:10;;;;;;;9.10;5.95;;;;;;;;;;5051910;28;20357;-89
2021/09/10 05:22:37;;;;;;;10.50;6.60;;;;;;;;;;5052578;28;20480;-89
2021/09/10 05:25:03;;;;;;;11.63;5.85;;;;;;;;;;5051359;28;20515;-88
2021/09/10 05:27:28;;;;;;;18.23;6.15;;;;;;;;;;5051546;28;20025;-89
2021/09/10 05:29:53;;;;;;;10.13;5.60;;;;;;;;;;5051811;28;20025;-89
2021/09/10 05:32:18;;;;;;;16.10;6.85;;;;;;;;;;5052954;28;20044;-88
2021/09/10 05:34:43;;;;;;;10.88;6.32;;;;;;;;;;5052873;28;20025;-89
2021/09/10 05:37:09;;;;;;;10.43;5.97;;;;;;;;;;5051651;28;20025;-88
2021/09/10 05:39:34;;;;;;;10.55;6.15;;;;;;;;;;5051505;28;20047;-89
2021/09/10 05:41:59;;;;;;;12.63;6.40;;;;;;;;;;5052979;28;20025;-89
2021/09/10 05:44:24;;;;;;;11.48;6.25;;;;;;;;;;5052828;28;20059;-89
2021/09/10 05:46:50;;;;;;;12.90;6.00;;;;;;;;;;5051368;28;20476;-89
2021/09/10 05:49:15;;;;;;;10.55;6.15;;;;;;;;;;5051482;28;20025;-89
2021/09/10 05:51:40;;;;;;;11.60;6.25;;;;;;;;;;5051311;28;20017;-89
2021/09/10 05:54:06;;;;;;;12.40;6.47;;;;;;;;;;5051335;28;20111;-88
2021/09/10 05:56:31;;;;;;;11.90;6.70;;;;;;;;;;5051270;28;20013;-89
2021/09/10 05:58:56;;;;;;;12.60;6.35;;;;;;;;;;5051458;28;20124;-89
2021/09/10 06:01:21;;;;;;;14.07;6.72;;;;;;;;;;5051118;28;20018;-89
2021/09/10 06:03:47;;;;;;;15.35;7.22;;;;;;;;;;5052639;28;20397;-88
2021/09/10 06:06:12;;;;;;;10.25;5.78;;;;;;;;;;5051339;28;20480;-89
2021/09/10 06:08:37;;;;;;;12.60;6.07;;;;;;;;;;5052659;28;20096;-89
2021/09/10 06:11:03;;;;;;;16.95;6.60;;;;;;;;;;5050801;28;20036;-89
2021/09/10 06:13:28;;;;;;;11.98;6.45;;;;;;;;;;5050974;28;20017;-89
2021/09/10 06:15:53;;;;;;;16.42;5.72;;;;;;;;;;5051265;28;20027;-89
2021/09/10 06:18:19;;;;;;;8.93;5.72;;;;;;;;;;5052388;28;20021;-89
2021/09/10 06:20:44;;;;;;;13.93;5.95;;;;;;;;;;5051237;28;20024;-89
2021/09/10 06:23:09;;;;;;;10.45;5.93;;;;;;;;;;5051158;28;20076;-89
2021/09/10 06:25:34;;;;;;;12.45;5.82;;;;;;;;;;5052214;28;20016;-88
2021/09/10 06:28:00;;;;;;;10.40;5.47;;;;;;;;;;5084724;28;20135;-89
2021/09/10 06:30:25;;;;;;;14.00;5.90;;;;;;;;;;5051011;28;20104;-89
2021/09/10 06:32:50;;;;;;;12.27;5.32;;;;;;;;;;5051465;28;20115;-89
2021/09/10 06:35:16;;;;;;;12.13;6.32;;;;;;;;;;5050870;28;20045;-89
2021/09/10 06:37:41;;;;;;;12.27;5.85;;;;;;;;;;5053704;28;20067;-88
2021/09/10 06:40:06;;;;;;;11.48;6.03;;;;;;;;;;5054236;28;20057;-89
2021/09/10 06:42:32;;;;;;;13.18;6.55;;;;;;;;;;5054326;28;20032;-89
2021/09/10 06:44:57;;;;;;;13.05;6.28;;;;;;;;;;5054465;28;20469;-89
2021/09/10 06:47:22;;;;;;;11.30;6.55;;;;;;;;;;5054456;28;20021;-88
2021/09/10 06:49:48;;;;;;;11.02;6.20;;;;;;;;;;5054338;28;20020;-87
2021/09/10 06:52:13;;;;;;;15.40;7.05;;;;;;;;;;5054637;28;20100;-88
2021/09/10 06:54:38;;;;;;;21.50;6.82;;;;;;;;;;5053359;28;20388;-89
2021/09/10 06:57:04;;;;;;;11.82;6.28;;;;;;;;;;5053829;28;20035;-89
2021/09/10 06:59:30;;;;;;;9.85;6.45;;;;;;;;;;5054749;28;20076;-88
2021/09/10 07:01:55;;;;;;;11.07;6.32;;;;;;;;;;5054256;28;20464;-88
2021/09/10 07:04:21;;;;;;;14.68;6.63;;;;;;;;;;5054323;28;20025;-89
2021/09/10 07:06:46;;;;;;;10.50;6.82;;;;;;;;;;5054186;28;20100;-88
2021/09/10 07:09:11;;;;;;;13.38;7.43;;;;;;;;;;5054142;28;20482;-89
2021/09/10 07:11:37;;;;;;;13.38;7.45;;;;;;;;;;5054067;28;20084;-88
2021/09/10 07:14:02;;;;;;;13.88;7.13;;;;;;;;;;5054150;28;20024;-89
2021/09/10 07:16:28;;;;;;;12.63;6.65;;;;;;;;;;5055261;28;20506;-89
2021/09/10 07:18:53;;;;;;;14.75;7.50;;;;;;;;;;5055289;28;20461;-89
2021/09/10 07:21:19;;;;;;;13.18;7.82;;;;;;;;;;5053637;28;20074;-88
2021/09/10 07:23:44;;;;;;;12.00;7.10;;;;;;;;;;5054978;28;20020;-89
2021/09/10 07:26:09;;;;;;;13.38;6.82;;;;;;;;;;5055303;28;20017;-89
2021/09/10 07:28:35;;;;;;;12.13;6.95;;;;;;;;;;5054678;28;20020;-89
2021/09/10 07:31:01;;;;;;;11.30;6.63;;;;;;;;;;5053698;28;20043;-88
2021/09/10 07:33:26;;;;;;;12.35;6.63;;;;;;;;;;5053931;28;20120;-89
2021/09/10 07:35:52;;;;;;;13.73;7.00;;;;;;;;;;5053599;28;20441;-89
2021/09/10 07:38:17;;;;;;;14.98;6.93;;;;;;;;;;5053543;28;20025;-89
2021/09/10 07:40:43;;;;;;;11.57;7.43;;;;;;;;;;5053459;28;20021;-89
2021/09/10 07:43:08;;;;;;;12.05;6.55;;;;;;;;;;5053562;28;20107;-89
2021/09/10 07:45:33;;;;;;;15.05;7.57;;;;;;;;;;5053297;28;20075;-89
2021/09/10 07:47:58;;;;;;;11.40;6.78;;;;;;;;;;5052463;28;20105;-89
2021/09/10 07:50:24;;;;;;;14.68;7.30;;;;;;;;;;5053965;28;20025;-89
2021/09/10 07:52:49;;;;;;;11.75;6.38;;;;;;;;;;5053155;28;20388;-89
2021/09/10 07:55:14;;;;;;;11.90;6.45;;;;;;;;;;5053633;28;20074;-89
2021/09/10 07:57:39;;;;;;;14.18;7.13;;;;;;;;;;5055017;28;20025;-88
2021/09/10 08:00:05;;;;;;;12.02;6.72;;;;;;;;;;5053291;28;20025;-89
2021/09/10 08:02:30;;;;;;;12.98;6.80;;;;;;;;;;5052848;28;20024;-89
2021/09/10 08:04:56;;;;;;;14.63;6.72;;;;;;;;;;5052830;28;20144;-89
2021/09/10 08:07:22;;;;;;;13.30;6.28;;;;;;;;;;5053120;28;20492;-89
2021/09/10 08:09:47;;;;;;;16.02;6.53;;;;;;;;;;5054406;28;20029;-89
2021/09/10 08:12:12;;;;;;;21.23;6.15;;;;;;;;;;5053063;28;20025;-89
2021/09/10 08:14:37;;;;;;;8.90;5.43;;;;;;;;;;5053071;28;20672;-89
2021/09/10 08:17:03;;;;;;;12.30;5.47;;;;;;;;;;5053050;28;20046;-88
2021/09/10 08:19:29;;;;;;;10.48;5.63;;;;;;;;;;5053632;28;20017;-87
2021/09/10 08:21:54;;;;;;;10.32;5.90;;;;;;;;;;5052548;28;20039;-89
2021/09/10 08:24:19;;;;;;;13.77;6.07;;;;;;;;;;5052914;28;20025;-88
2021/09/10 08:26:44;;;;;;;15.25;6.43;;;;;;;;;;5052253;28;20032;-87
2021/09/10 08:29:10;;;;;;;15.32;5.95;;;;;;;;;;5053720;28;20017;-88
2021/09/10 08:31:35;;;;;;;11.75;5.00;;;;;;;;;;5053860;28;20025;-88
2021/09/10 08:34:02;;;;;;;13.40;5.90;;;;;;;;;;5052633;28;20017;-89
2021/09/10 08:36:27;;;;;;;8.93;5.57;;;;;;;;;;5052552;28;20025;-88
2021/09/10 08:38:52;;;;;;;13.93;6.20;;;;;;;;;;5052263;28;20036;-89
2021/09/10 08:41:21;;;;;;;12.27;5.90;;;;;;;;;;5051393;28;20028;-89
2021/09/10 08:43:47;;;;;;;9.68;5.45;;;;;;;;;;5052298;28;20017;-88
2021/09/10 08:46:12;;;;;;;9.23;4.97;;;;;;;;;;5052457;28;20067;-89
2021/09/10 08:48:38;;;;;;;15.38;5.40;;;;;;;;;;5052381;28;20029;-89
2021/09/10 08:51:03;;;;;;;12.50;6.00;;;;;;;;;;5052261;28;20024;-88
2021/09/10 08:53:28;;;;;;;10.55;5.60;;;;;;;;;;5053330;28;20027;-89
2021/09/10 08:55:53;;;;;;;12.43;6.00;;;;;;;;;;5051884;28;20024;-89
2021/09/10 08:58:18;;;;;;;13.70;5.40;;;;;;;;;;5052116;28;20526;-89
2021/09/10 09:00:44;;;;;;;14.75;5.70;;;;;;;;;;5052615;28;20017;-88
2021/09/10 09:03:11;;;;;;;13.95;6.18;;;;;;;;;;5052849;28;20028;-88
2021/09/10 09:05:36;;;;;;;8.85;5.28;;;;;;;;;;5052032;28;20388;-88
2021/09/10 09:08:11;;;;;;;12.25;6.57;;;;;;;;;;5052061;28;20017;-87
2021/09/10 09:10:48;;;;;;;10.48;5.90;;;;;;;;;;5052107;28;20103;-89
2021/09/10 09:13:13;;;;;;;9.82;5.45;;;;;;;;;;5051989;28;20419;-88
2021/09/10 09:15:38;;;;;;;9.40;5.13;;;;;;;;;;5051817;28;20079;-89
2021/09/10 09:18:04;;;;;;;10.30;5.60;;;;;;;;;;5052979;28;20396;-88
2021/09/10 09:20:29;;;;;;;9.85;5.85;;;;;;;;;;5051807;28;20491;-89
2021/09/10 09:22:59;;;;;;;8.85;5.60;;;;;;;;;;5051637;28;20021;-89
2021/09/10 09:25:26;;;;;;;11.18;5.35;;;;;;;;;;5051284;28;20155;-89
2021/09/10 09:27:52;;;;;;;12.55;6.03;;;;;;;;;;5051821;28;20013;-89
2021/09/10 09:30:36;;;;;;;10.57;5.18;;;;;;;;;;5051417;28;20020;-89
2021/09/10 09:33:01;;;;;;;13.77;5.82;;;;;;;;;;5051916;28;20107;-89
2021/09/10 09:35:30;;;;;;;14.93;5.50;;;;;;;;;;5052825;28;20052;-89
2021/09/10 09:37:55;;;;;;;13.35;6.00;;;;;;;;;;5053119;28;20025;-89
2021/09/10 09:40:29;;;;;;;11.23;6.05;;;;;;;;;;5052776;28;20079;-88
2021/09/10 09:42:54;;;;;;;13.00;5.72;;;;;;;;;;5051665;28;20021;-89
2021/09/10 09:45:22;;;;;;;12.73;5.88;;;;;;;;;;5052974;28;20039;-88
2021/09/10 09:47:48;;;;;;;14.63;5.78;;;;;;;;;;5053155;28;20031;-89
2021/09/10 09:50:15;;;;;;;10.18;5.88;;;;;;;;;;5051639;28;20388;-89
2021/09/10 09:52:40;;;;;;;10.98;6.22;;;;;;;;;;5051478;28;20079;-88
2021/09/10 09:55:07;;;;;;;17.00;6.30;;;;;;;;;;5051420;28;20021;-89
2021/09/10 09:57:33;;;;;;;11.82;6.22;;;;;;;;;;5052888;28;20032;-88
2021/09/10 10:00:02;;;;;;;12.68;6.68;;;;;;;;;;5051576;28;20029;-88
2021/09/10 10:02:27;;;;;;;13.60;6.90;;;;;;;;;;5051454;28;20028;-88
2021/09/10 10:04:55;;;;;;;11.73;6.95;;;;;;;;;;5051499;28;20473;-89
2021/09/10 10:07:20;;;;;;;20.88;8.10;;;;;;;;;;5052764;28;20013;-88
2021/09/10 10:09:48;;;;;;;16.73;8.48;;;;;;;;;;5050856;28;20780;-88
2021/09/10 10:12:15;;;;;;;14.85;7.90;;;;;;;;;;5053583;28;20107;-88
2021/09/10 10:14:41;;;;;;;15.13;8.85;;;;;;;;;;5055688;28;20553;-89
2021/09/10 10:17:25;;;;;;;16.30;8.80;;;;;;;;;;5054846;28;20057;-89
2021/09/10 10:19:50;;;;;;;15.95;8.88;;;;;;;;;;5054359;28;20107;-88
2021/09/10 10:22:30;;;;;;;17.05;8.85;;;;;;;;;;5054884;28;20162;-88
2021/09/10 10:24:56;;;;;;;18.40;8.98;;;;;;;;;;5054915;28;20017;-88
2021/09/10 10:27:35;;;;;;;16.70;9.07;;;;;;;;;;5055087;28;20023;-89
2021/09/10 10:30:02;;;;;;;17.08;10.20;;;;;;;;;;5055179;28;20021;-88
2021/09/10 10:32:30;;;;;;;19.42;9.63;;;;;;;;;;5055043;28;20415;-89
2021/09/10 10:35:13;;;;;;;17.95;9.20;;;;;;;;;;5056259;28;20436;-88
2021/09/10 10:37:40;;;;;;;17.13;9.82;;;;;;;;;;5054623;28;20024;-88
2021/09/10 10:40:24;;;;;;;17.38;9.50;;;;;;;;;;5054716;28;20031;-89
2021/09/10 10:42:51;;;;;;;14.43;9.52;;;;;;;;;;5054790;28;20028;-89
2021/09/10 10:45:16;;;;;;;19.88;10.60;;;;;;;;;;5054313;28;20070;-89
2021/09/10 10:47:41;;;;;;;19.65;10.57;;;;;;;;;;5054559;28;20021;-89
2021/09/10 10:50:26;;;;;;;19.80;10.75;;;;;;;;;;5054575;28;20029;-89
2021/09/10 10:52:55;;;;;;;18.13;10.73;;;;;;;;;;5054648;28;20031;-88
2021/09/10 10:55:29;;;;;;;22.63;11.52;;;;;;;;;;5054540;28;20021;-88
2021/09/10 10:58:15;;;;;;;21.23;11.32;;;;;;;;;;5055854;28;20483;-88
2021/09/10 11:00:45;;;;;;;24.48;11.80;;;;;;;;;;5054309;28;20053;-88
2021/09/10 11:03:13;;;;;;;19.42;11.88;;;;;;;;;;5053696;28;20025;-88
2021/09/10 11:05:39;;;;;;;19.70;11.73;;;;;;;;;;5055594;28;20381;-88
2021/09/10 11:08:04;;;;;;;23.08;12.35;;;;;;;;;;5054071;28;20027;-86
2021/09/10 11:10:29;;;;;;;23.02;11.20;;;;;;;;;;5054188;28;20056;-88
2021/09/10 11:12:55;;;;;;;14.10;8.57;;;;;;;;;;5053730;28;20184;-89
2021/09/10 11:15:25;;;;;;;13.27;8.60;;;;;;;;;;5054021;28;20021;-88
2021/09/10 11:18:00;;;;;;;15.02;7.93;;;;;;;;;;5054161;28;20112;-88
2021/09/10 11:20:34;;;;;;;12.50;8.05;;;;;;;;;;5053293;28;20526;-88
2021/09/10 11:22:59;;;;;;;13.23;7.82;;;;;;;;;;5054074;28;20112;-88
2021/09/10 11:25:25;;;;;;;11.45;7.32;;;;;;;;;;5053995;28;20043;-88
2021/09/10 11:27:50;;;;;;;11.10;6.78;;;;;;;;;;5053912;28;20024;-88
2021/09/10 11:30:15;;;;;;;11.57;6.80;;;;;;;;;;5053741;28;20017;-88
2021/09/10 11:32:41;;;;;;;14.60;7.35;;;;;;;;;;5053813;28;20031;-88
2021/09/10 11:35:20;;;;;;;16.20;7.47;;;;;;;;;;5054077;28;20380;-88
2021/09/10 11:37:55;;;;;;;17.05;6.90;;;;;;;;;;5053637;28;20025;-88
2021/09/10 11:40:27;;;;;;;10.90;6.15;;;;;;;;;;5053887;28;20027;-89
2021/09/10 11:42:52;;;;;;;;;;;;;;;;;;5054178;28;20070;-88
2021/09/10 11:45:17;;;;;;;7.05;4.53;;;;;;;;;;5054453;28;19991;-88
2021/09/10 11:47:42;;;;;;;8.43;4.55;;;;;;;;;;5053185;28;20120;-88
2021/09/10 11:50:09;;;;;;;7.07;4.35;;;;;;;;;;5053336;28;20424;-87
2021/09/10 11:52:35;;;;;;;6.50;3.97;;;;;;;;;;5052760;28;20025;-89
2021/09/10 11:55:11;;;;;;;5.32;3.58;;;;;;;;;;5053240;28;20028;-88
2021/09/10 11:57:37;;;;;;;7.57;3.60;;;;;;;;;;5053344;28;20043;-88
2021/09/10 12:00:03;;;;;;;7.03;4.05;;;;;;;;;;5053179;28;20013;-89
2021/09/10 12:02:28;;;;;;;5.68;3.65;;;;;;;;;;5053333;28;20025;-88
2021/09/10 12:04:55;;;;;;;6.50;3.60;;;;;;;;;;5054467;28;20468;-88
2021/09/10 12:07:27;;;;;;;7.25;3.83;;;;;;;;;;5053280;28;20464;-88
2021/09/10 12:09:52;;;;;;;5.05;3.83;;;;;;;;;;5054281;28;20092;-88
2021/09/10 12:12:22;;;;;;;5.78;3.70;;;;;;;;;;5053277;28;20488;-88
2021/09/10 12:14:53;;;;;;;5.22;3.53;;;;;;;;;;5053183;28;20151;-89
2021/09/10 12:17:21;;;;;;;5.80;3.60;;;;;;;;;;5052587;28;20039;-89
2021/09/10 12:19:56;;;;;;;6.05;3.58;;;;;;;;;;5052983;28;20074;-88
2021/09/10 12:22:24;;;;;;;9.38;3.97;;;;;;;;;;5054131;28;20074;-88
2021/09/10 12:25:09;;;;;;;7.32;4.30;;;;;;;;;;5086371;28;20021;-88
2021/09/10 12:27:35;;;;;;;5.68;3.42;;;;;;;;;;5052727;28;20071;-88
2021/09/10 12:30:07;;;;;;;4.18;2.75;;;;;;;;;;5052541;28;20027;-88
2021/09/10 12:32:32;;;;;;;;;;;;;;;;;;5053107;28;20024;-89
2021/09/10 12:34:57;;;;;;;5.38;2.95;;;;;;;;;;5052520;28;19905;-88
2021/09/10 12:37:22;;;;;;;5.15;2.92;;;;;;;;;;5052537;28;20020;-89
2021/09/10 12:39:47;;;;;;;7.88;3.00;;;;;;;;;;5052779;28;20021;-89
2021/09/10 12:42:13;;;;;;;6.25;3.53;;;;;;;;;;5052013;28;20526;-88
2021/09/10 12:44:38;;;;;;;4.85;3.47;;;;;;;;;;5051934;28;20013;-89
2021/09/10 12:47:03;;;;;;;5.28;3.22;;;;;;;;;;5051322;28;20464;-89
2021/09/10 12:49:28;;;;;;;7.93;4.03;;;;;;;;;;5050283;28;20036;-89
2021/09/10 12:51:53;;;;;;;5.82;3.22;;;;;;;;;;5051195;28;20044;-89
2021/09/10 12:54:19;;;;;;;3.95;2.67;;;;;;;;;;5050635;28;20391;-89
2021/09/10 12:56:44;;;;;;;5.60;2.70;;;;;;;;;;5050827;28;20028;-89
2021/09/10 12:59:09;;;;;;;4.60;2.17;;;;;;;;;;5050814;28;20016;-88
2021/09/10 13:01:34;;;;;;;5.20;2.58;;;;;;;;;;5050871;28;20077;-88
2021/09/10 13:03:59;;;;;;;3.47;2.17;;;;;;;;;;5050418;28;20380;-89
2021/09/10 13:06:24;;;;;;;3.65;2.45;;;;;;;;;;5050605;28;20032;-89
2021/09/10 13:08:50;;;;;;;6.13;2.35;;;;;;;;;;5050444;28;20022;-89
2021/09/10 13:11:15;;;;;;;3.05;2.13;;;;;;;;;;5051994;28;20468;-89
2021/09/10 13:13:40;;;;;;;3.70;2.45;;;;;;;;;;5051820;28;20100;-89
2021/09/10 13:16:05;;;;;;;4.75;2.45;;;;;;;;;;5051679;28;20017;-88
2021/09/10 13:18:31;;;;;;;5.03;2.25;;;;;;;;;;5052897;28;20031;-89
2021/09/10 13:20:56;;;;;;;6.10;2.58;;;;;;;;;;5052466;28;20499;-89
2021/09/10 13:23:21;;;;;;;3.97;2.42;;;;;;;;;;5051744;28;20028;-89
2021/09/10 13:25:46;;;;;;;5.93;2.92;;;;;;;;;;5051863;28;20021;-89
2021/09/10 13:28:12;;;;;;;6.38;2.75;;;;;;;;;;5053314;28;20423;-89
2021/09/10 13:30:37;;;;;;;4.70;2.50;;;;;;;;;;5051555;28;20012;-88
2021/09/10 13:33:02;;;;;;;6.47;2.53;;;;;;;;;;5051525;28;20035;-88
2021/09/10 13:35:27;;;;;;;3.83;2.20;;;;;;;;;;5051549;28;20021;-88
2021/09/10 13:37:53;;;;;;;4.68;2.63;;;;;;;;;;5053024;28;20372;-88
2021/09/10 13:40:18;;;;;;;3.85;2.70;;;;;;;;;;5051498;28;20021;-88
2021/09/10 13:42:43;;;;;;;6.60;2.45;;;;;;;;;;5052628;28;20059;-88
2021/09/10 13:45:09;;;;;;;5.47;2.60;;;;;;;;;;5051574;28;20013;-88
2021/09/10 13:47:34;;;;;;;4.07;2.38;;;;;;;;;;5055806;28;20623;-88
2021/09/10 13:50:01;;;;;;;5.88;2.90;;;;;;;;;;5055545;28;20027;-88
2021/09/10 13:52:26;;;;;;;6.03;2.95;;;;;;;;;;5055312;28;20123;-88
2021/09/10 13:54:51;;;;;;;5.47;2.65;;;;;;;;;;5055737;28;20017;-88
2021/09/10 13:57:17;;;;;;;4.82;3.00;;;;;;;;;;5056936;28;20027;-88
2021/09/10 13:59:42;;;;;;;7.30;3.55;;;;;;;;;;5056690;28;20031;-88
2021/09/10 14:02:08;;;;;;;7.72;3.42;;;;;;;;;;5055628;28;20078;-89
2021/09/10 14:04:33;;;;;;;7.20;3.67;;;;;;;;;;5055464;28;20013;-89
2021/09/10 14:06:58;;;;;;;6.15;3.03;;;;;;;;;;5055199;28;20087;-89
2021/09/10 14:09:25;;;;;;;7.10;3.42;;;;;;;;;;5055383;28;20104;-88
2021/09/10 14:11:50;;;;;;;6.03;2.95;;;;;;;;;;5055060;28;20017;-88
2021/09/10 14:14:15;;;;;;;5.70;2.90;;;;;;;;;;5055282;28;20032;-87
2021/09/10 14:16:41;;;;;;;6.25;3.30;;;;;;;;;;5055159;28;20021;-88
2021/09/10 14:19:07;;;;;;;5.35;3.15;;;;;;;;;;5056794;28;20029;-89
2021/09/10 14:21:32;;;;;;;6.07;3.15;;;;;;;;;;5054842;28;20407;-88
2021/09/10 14:23:58;;;;;;;7.45;3.50;;;;;;;;;;5055988;28;20491;-89
2021/09/10 14:26:23;;;;;;;5.40;3.08;;;;;;;;;;5056038;28;20552;-88